createdAt,value
2018-03-06T00:00:24.838Z,108.83
2018-03-06T00:02:52.395Z,95.07
2018-03-06T00:05:20.986Z,102.70
2018-03-06T00:07:48.532Z,106.50
2018-03-06T00:10:16.094Z,101.80
2018-03-06T00:12:43.646Z,108.13
2018-03-06T00:15:12.140Z,107.90
2018-03-06T00:17:39.736Z,115.10
2018-03-06T00:20:07.305Z,102.47
2018-03-06T00:22:34.839Z,105.90
2018-03-06T00:25:02.426Z,104.30
2018-03-06T00:27:29.952Z,103.50
2018-03-06T00:29:57.499Z,117.27
2018-03-06T00:32:25.058Z,106.53
2018-03-06T00:34:52.602Z,105.53
2018-03-06T00:37:20.168Z,106.80
2018-03-06T00:39:47.825Z,96.03
2018-03-06T00:42:15.424Z,102.10
2018-03-06T00:44:42.959Z,105.67
2018-03-06T00:47:10.528Z,109.90
2018-03-06T00:49:38.085Z,108.67
2018-03-06T00:52:06.405Z,109.93
2018-03-06T00:54:33.968Z,101.75
2018-03-06T00:57:01.540Z,110.40
2018-03-06T00:59:29.860Z,112.22
2018-03-06T01:01:57.391Z,99.67
2018-03-06T01:04:24.940Z,118.20
2018-03-06T01:06:52.493Z,108.07
2018-03-06T01:09:20.055Z,119.47
2018-03-06T01:11:47.601Z,118.50
2018-03-06T01:14:15.178Z,104.90
2018-03-06T01:16:43.545Z,105.53
2018-03-06T01:19:11.150Z,109.00
2018-03-06T01:21:38.696Z,113.43
2018-03-06T01:24:06.266Z,91.93
2018-03-06T01:26:34.584Z,108.85
2018-03-06T01:29:02.247Z,108.27
2018-03-06T01:31:29.813Z,106.60
2018-03-06T01:33:58.119Z,110.47
2018-03-06T01:36:25.681Z,102.67
2018-03-06T01:38:53.271Z,99.90
2018-03-06T01:41:21.595Z,105.33
2018-03-06T01:43:49.132Z,106.57
2018-03-06T01:46:16.672Z,101.83
2018-03-06T01:48:44.217Z,102.37
2018-03-06T01:51:11.799Z,106.17
2018-03-06T01:53:40.123Z,117.33
2018-03-06T01:56:07.714Z,112.22
2018-03-06T01:58:35.283Z,103.80
2018-03-06T02:01:02.825Z,105.60
2018-03-06T02:03:31.148Z,115.03
2018-03-06T02:05:58.688Z,97.17
2018-03-06T02:08:26.256Z,100.90
2018-03-06T02:10:54.560Z,108.00
2018-03-06T02:13:22.141Z,102.43
2018-03-06T02:15:49.723Z,116.23
2018-03-06T02:18:18.057Z,109.60
2018-03-06T02:20:45.700Z,118.60
2018-03-06T02:23:13.268Z,116.13
2018-03-06T02:25:41.618Z,126.07
2018-03-06T02:28:09.196Z,111.17
2018-03-06T02:30:36.745Z,128.50
2018-03-06T02:33:04.283Z,107.87
2018-03-06T02:35:31.844Z,108.63
2018-03-06T02:37:59.388Z,113.43
2018-03-06T02:40:26.956Z,121.80
2018-03-06T02:42:54.509Z,110.83
2018-03-06T02:45:22.080Z,116.97
2018-03-06T02:47:49.712Z,103.60
2018-03-06T02:50:18.780Z,125.13
2018-03-06T02:52:46.329Z,107.67
2018-03-06T02:55:13.887Z,121.37
2018-03-06T02:57:41.432Z,118.90
2018-03-06T03:00:09.001Z,116.40
2018-03-06T03:02:37.324Z,117.40
2018-03-06T03:05:04.973Z,115.07
2018-03-06T03:07:32.525Z,102.13
2018-03-06T03:10:00.075Z,126.13
2018-03-06T03:12:27.632Z,119.33
2018-03-06T03:14:55.975Z,113.23
2018-03-06T03:17:24.327Z,119.73
2018-03-06T03:19:51.876Z,123.60
2018-03-06T03:22:19.422Z,123.27
2018-03-06T03:24:46.970Z,118.30
2018-03-06T03:27:14.532Z,127.03
2018-03-06T03:29:42.081Z,107.13
2018-03-06T03:32:10.423Z,125.23
2018-03-06T03:34:37.976Z,111.10
2018-03-06T03:37:05.531Z,124.43
2018-03-06T03:39:33.071Z,117.70
2018-03-06T03:42:01.406Z,117.00
2018-03-06T03:44:28.953Z,123.43
2018-03-06T03:46:56.508Z,123.53
2018-03-06T03:49:24.121Z,132.83
2018-03-06T03:51:51.703Z,123.62
2018-03-06T03:54:19.555Z,121.37
2018-03-06T03:56:48.096Z,142.23
2018-03-06T03:59:15.654Z,115.83
2018-03-06T04:01:43.218Z,117.17
2018-03-06T04:04:10.793Z,120.23
2018-03-06T04:06:38.387Z,131.67
2018-03-06T04:09:05.937Z,124.33
2018-03-06T04:11:34.288Z,120.73
2018-03-06T04:14:01.840Z,131.10
2018-03-06T04:16:29.384Z,122.30
2018-03-06T04:18:56.953Z,133.20
2018-03-06T04:21:25.296Z,136.20
2018-03-06T04:23:52.854Z,120.83
2018-03-06T04:26:20.454Z,124.23
2018-03-06T04:28:48.009Z,130.03
2018-03-06T04:31:15.597Z,131.90
2018-03-06T04:33:43.154Z,125.33
2018-03-06T04:36:11.467Z,126.10
2018-03-06T04:38:39.028Z,142.20
2018-03-06T04:41:06.568Z,123.47
2018-03-06T04:43:34.149Z,140.93
2018-03-06T04:46:02.455Z,134.00
2018-03-06T04:48:29.995Z,124.63
2018-03-06T04:50:57.548Z,130.07
2018-03-06T04:53:25.107Z,131.17
2018-03-06T04:55:52.666Z,119.80
2018-03-06T04:58:20.225Z,125.43
2018-03-06T05:00:48.786Z,132.10
2018-03-06T05:03:16.321Z,134.63
2018-03-06T05:05:43.897Z,129.03
2018-03-06T05:08:12.213Z,132.57
2018-03-06T05:10:39.780Z,127.67
2018-03-06T05:13:07.444Z,131.20
2018-03-06T05:15:35.757Z,131.23
2018-03-06T05:18:03.318Z,138.80
2018-03-06T05:20:30.878Z,136.10
2018-03-06T05:22:58.440Z,118.23
2018-03-06T05:25:26.740Z,122.53
2018-03-06T05:27:54.299Z,120.83
2018-03-06T05:30:21.837Z,130.53
2018-03-06T05:32:49.407Z,127.93
2018-03-06T05:35:16.952Z,133.70
2018-03-06T05:37:44.523Z,130.83
2018-03-06T05:40:12.857Z,135.93
2018-03-06T05:42:40.484Z,123.03
2018-03-06T05:45:08.011Z,132.17
2018-03-06T05:47:35.552Z,126.43
2018-03-06T05:50:03.116Z,130.83
2018-03-06T05:52:30.664Z,126.20
2018-03-06T05:54:58.219Z,116.63
2018-03-06T05:57:25.785Z,147.80
2018-03-06T05:59:53.365Z,130.30
2018-03-06T06:02:21.103Z,128.32
2018-03-06T06:04:55.352Z,138.13
2018-03-06T06:07:22.896Z,135.20
2018-03-06T06:09:50.498Z,135.20
2018-03-06T06:12:18.144Z,138.83
2018-03-06T06:14:46.460Z,132.07
2018-03-06T06:17:13.996Z,124.10
2018-03-06T06:19:41.525Z,132.85
2018-03-06T06:22:09.985Z,126.40
2018-03-06T06:24:37.532Z,132.33
2018-03-06T06:27:05.121Z,128.27
2018-03-06T06:29:32.668Z,127.90
2018-03-06T06:32:00.212Z,139.07
2018-03-06T06:34:27.743Z,121.35
2018-03-06T06:36:55.280Z,123.03
2018-03-06T06:39:22.882Z,129.30
2018-03-06T06:41:50.454Z,121.47
2018-03-06T06:44:17.977Z,124.67
2018-03-06T06:46:46.279Z,129.87
2018-03-06T06:49:13.820Z,140.13
2018-03-06T06:51:41.351Z,127.83
2018-03-06T06:54:08.895Z,133.03
2018-03-06T06:56:36.429Z,129.00
2018-03-06T06:59:03.964Z,120.17
2018-03-06T07:01:31.489Z,136.53
2018-03-06T07:03:59.813Z,121.27
2018-03-06T07:06:27.335Z,127.10
2018-03-06T07:08:54.877Z,131.97
2018-03-06T07:11:23.435Z,127.50
2018-03-06T07:13:50.994Z,128.63
2018-03-06T07:16:18.520Z,130.47
2018-03-06T07:18:46.062Z,114.57
2018-03-06T07:21:13.663Z,128.63
2018-03-06T07:23:41.207Z,123.83
2018-03-06T07:26:08.730Z,139.43
2018-03-06T07:28:36.376Z,122.03
2018-03-06T07:31:03.907Z,111.90
2018-03-06T07:33:31.449Z,124.63
2018-03-06T07:35:59.114Z,133.10
2018-03-06T07:38:26.639Z,121.70
2018-03-06T07:40:54.176Z,118.67
2018-03-06T07:43:21.707Z,136.03
2018-03-06T07:45:49.270Z,122.90
2018-03-06T07:48:16.793Z,112.30
2018-03-06T07:50:45.119Z,112.97
2018-03-06T07:53:12.679Z,120.25
2018-03-06T07:55:40.198Z,121.23
2018-03-06T07:58:07.753Z,112.27
2018-03-06T08:00:36.101Z,110.93
2018-03-06T08:03:03.612Z,122.03
2018-03-06T08:05:31.141Z,121.85
2018-03-06T08:07:58.683Z,117.87
2018-03-06T08:10:27.002Z,112.23
2018-03-06T08:12:54.561Z,124.70
2018-03-06T08:15:22.152Z,116.83
2018-03-06T08:17:49.729Z,112.57
2018-03-06T08:20:17.245Z,112.70
2018-03-06T08:22:44.808Z,118.90
2018-03-06T08:25:12.336Z,115.40
2018-03-06T08:27:39.932Z,116.18
2018-03-06T08:30:07.521Z,112.80
2018-03-06T08:32:35.099Z,123.18
2018-03-06T08:35:02.634Z,124.07
2018-03-06T08:37:30.151Z,126.75
2018-03-06T08:39:57.708Z,109.90
2018-03-06T08:42:26.168Z,127.75
2018-03-06T08:44:53.735Z,119.37
2018-03-06T08:47:21.261Z,116.93
2018-03-06T08:49:48.828Z,108.50
2018-03-06T08:52:16.364Z,118.07
2018-03-06T08:54:43.913Z,106.33
2018-03-06T08:57:11.555Z,118.10
2018-03-06T08:59:39.166Z,122.43
2018-03-06T09:02:06.692Z,122.57
2018-03-06T09:04:34.986Z,107.50
2018-03-06T09:07:02.526Z,107.10
2018-03-06T09:09:30.062Z,109.03
2018-03-06T09:11:57.616Z,104.90
2018-03-06T09:14:26.842Z,123.17
2018-03-06T09:16:54.381Z,111.03
2018-03-06T09:19:21.911Z,106.23
2018-03-06T09:21:49.496Z,110.47
2018-03-06T09:24:17.021Z,113.57
2018-03-06T09:26:45.236Z,112.60
2018-03-06T09:29:12.760Z,108.13
2018-03-06T09:31:41.066Z,110.90
2018-03-06T09:34:08.597Z,117.90
2018-03-06T09:36:36.149Z,123.27
2018-03-06T09:39:03.681Z,116.50
2018-03-06T09:41:31.212Z,111.17
2018-03-06T09:43:58.751Z,117.73
2018-03-06T09:46:27.530Z,112.47
2018-03-06T09:48:55.060Z,108.80
2018-03-06T09:51:23.360Z,118.47
2018-03-06T09:53:50.905Z,113.28
2018-03-06T09:56:18.455Z,112.10
2018-03-06T09:58:45.993Z,106.43
2018-03-06T10:01:13.521Z,119.80
2018-03-06T10:03:41.093Z,116.12
2018-03-06T10:06:08.612Z,119.47
2018-03-06T10:08:36.152Z,112.10
2018-03-06T10:11:03.687Z,109.30
2018-03-06T10:13:31.227Z,117.30
2018-03-06T10:15:59.518Z,114.50
2018-03-06T10:18:28.304Z,120.18
2018-03-06T10:20:55.828Z,119.27
2018-03-06T10:23:23.395Z,118.80
2018-03-06T10:25:50.935Z,118.70
2018-03-06T10:28:18.457Z,125.40
2018-03-06T10:30:46.000Z,107.43
2018-03-06T10:33:13.534Z,104.80
2018-03-06T10:35:41.108Z,111.27
2018-03-06T10:38:08.625Z,98.83
2018-03-06T10:40:36.202Z,110.20
2018-03-06T10:43:03.723Z,106.37
2018-03-06T10:45:31.264Z,110.03
2018-03-06T10:47:58.931Z,103.00
2018-03-06T10:50:26.509Z,103.17
2018-03-06T10:52:55.553Z,103.53
2018-03-06T10:55:23.096Z,105.83
2018-03-06T10:57:50.628Z,101.65
2018-03-06T11:00:23.907Z,88.57
2018-03-06T11:02:52.316Z,96.57
2018-03-06T11:05:19.852Z,102.37
2018-03-06T11:07:47.368Z,109.70
2018-03-06T11:10:15.024Z,100.23
2018-03-06T11:12:42.567Z,100.10
2018-03-06T11:15:10.137Z,105.47
2018-03-06T11:17:37.756Z,122.33
2018-03-06T11:20:05.298Z,120.10
2018-03-06T11:22:32.887Z,129.70
2018-03-06T11:25:01.177Z,129.67
2018-03-06T11:27:29.544Z,117.00
2018-03-06T11:29:57.067Z,126.87
2018-03-06T11:32:25.430Z,119.10
2018-03-06T11:34:53.718Z,124.90
2018-03-06T11:37:21.260Z,114.33
2018-03-06T11:39:48.776Z,131.67
2018-03-06T11:42:17.080Z,146.97
2018-03-06T11:44:44.600Z,132.37
2018-03-06T11:47:12.143Z,113.07
2018-03-06T11:49:39.741Z,125.73
2018-03-06T11:52:07.321Z,139.57
2018-03-06T11:54:35.630Z,114.77
2018-03-06T11:57:03.200Z,113.87
2018-03-06T11:59:31.492Z,127.27
2018-03-06T12:01:59.823Z,126.63
2018-03-06T12:04:28.121Z,124.27
2018-03-06T12:06:56.406Z,120.77
2018-03-06T12:09:23.952Z,105.73
2018-03-06T12:11:51.470Z,116.13
2018-03-06T12:14:19.018Z,125.87
2018-03-06T12:16:47.312Z,107.50
2018-03-06T12:19:14.879Z,127.50
2018-03-06T12:21:42.415Z,117.93
2018-03-06T12:24:09.980Z,122.73
2018-03-06T12:26:37.617Z,124.33
2018-03-06T12:29:05.184Z,120.20
2018-03-06T12:31:33.606Z,130.03
2018-03-06T12:34:01.148Z,129.13
2018-03-06T12:36:28.700Z,127.90
2018-03-06T12:38:56.256Z,130.53
2018-03-06T12:41:23.782Z,122.53
2018-03-06T12:43:51.309Z,128.57
2018-03-06T12:46:18.881Z,132.40
2018-03-06T12:48:46.396Z,137.40
2018-03-06T12:51:13.940Z,136.83
2018-03-06T12:53:41.461Z,138.27
2018-03-06T12:56:09.788Z,136.80
2018-03-06T12:58:37.337Z,144.87
2018-03-06T13:01:04.873Z,139.00
2018-03-06T13:03:32.422Z,139.13
2018-03-06T13:05:59.969Z,125.73
2018-03-06T13:08:27.516Z,123.77
2018-03-06T13:10:55.068Z,128.10
2018-03-06T13:13:24.117Z,119.80
2018-03-06T13:15:51.663Z,119.63
2018-03-06T13:18:19.215Z,123.57
2018-03-06T13:20:46.750Z,127.80
2018-03-06T13:23:14.291Z,129.37
2018-03-06T13:25:41.811Z,148.97
2018-03-06T13:28:09.344Z,159.40
2018-03-06T13:30:36.868Z,140.03
2018-03-06T13:33:05.177Z,129.53
2018-03-06T13:35:32.769Z,149.93
2018-03-06T13:38:01.925Z,145.00
2018-03-06T13:40:29.472Z,149.93
2018-03-06T13:42:57.005Z,154.30
2018-03-06T13:45:24.534Z,159.63
2018-03-06T13:47:52.089Z,163.40
2018-03-06T13:50:19.612Z,161.43
2018-03-06T13:52:47.179Z,166.27
2018-03-06T13:55:14.711Z,173.73
2018-03-06T13:57:42.527Z,174.07
2018-03-06T14:00:10.851Z,183.70
2018-03-06T14:02:38.385Z,188.47
2018-03-06T14:05:06.128Z,167.37
2018-03-06T14:07:33.661Z,198.90
2018-03-06T14:10:01.216Z,190.57
2018-03-06T14:12:28.918Z,209.50
2018-03-06T14:14:57.237Z,202.07
2018-03-06T14:17:24.784Z,199.43
2018-03-06T14:19:52.319Z,200.40
2018-03-06T14:22:19.843Z,216.27
2018-03-06T14:24:47.429Z,218.50
2018-03-06T14:27:15.007Z,226.17
2018-03-06T14:29:42.559Z,220.60
2018-03-06T14:32:10.102Z,234.23
2018-03-06T14:34:38.388Z,227.63
2018-03-06T14:37:05.941Z,234.67
2018-03-06T14:39:34.735Z,220.77
2018-03-06T14:42:02.280Z,217.73
2018-03-06T14:44:29.812Z,205.83
2018-03-06T14:46:57.453Z,227.57
2018-03-06T14:49:24.997Z,234.75
2018-03-06T14:51:52.533Z,224.40
2018-03-06T14:54:20.082Z,209.53
2018-03-06T14:56:48.613Z,214.23
2018-03-06T14:59:16.924Z,223.60
2018-03-06T15:01:44.489Z,220.45
2018-03-06T15:04:12.025Z,222.77
2018-03-06T15:06:39.544Z,193.13
2018-03-06T15:09:07.110Z,209.43
2018-03-06T15:11:34.689Z,206.43
2018-03-06T15:14:02.997Z,209.20
2018-03-06T15:16:31.342Z,215.03
2018-03-06T15:18:58.885Z,204.57
2018-03-06T15:21:26.420Z,202.33
2018-03-06T15:23:53.945Z,201.17
2018-03-06T15:26:21.488Z,178.43
2018-03-06T15:28:49.787Z,207.47
2018-03-06T15:31:17.371Z,213.40
2018-03-06T15:33:44.993Z,200.37
2018-03-06T15:36:12.534Z,222.57
2018-03-06T15:38:40.057Z,193.83
2018-03-06T15:41:07.591Z,196.90
2018-03-06T15:43:36.367Z,194.18
2018-03-06T15:46:03.932Z,209.03
2018-03-06T15:48:31.487Z,208.50
2018-03-06T15:50:59.879Z,205.30
2018-03-06T15:53:27.413Z,209.83
2018-03-06T15:55:54.995Z,217.80
2018-03-06T15:58:23.305Z,227.40
2018-03-06T16:00:50.820Z,227.80
2018-03-06T16:03:18.365Z,222.07
2018-03-06T16:05:45.929Z,228.87
2018-03-06T16:08:13.471Z,215.90
2018-03-06T16:10:40.996Z,239.27
2018-03-06T16:13:08.537Z,236.60
2018-03-06T16:15:37.396Z,234.82
2018-03-06T16:18:04.952Z,234.33
2018-03-06T16:20:32.517Z,224.07
2018-03-06T16:23:00.053Z,225.83
2018-03-06T16:25:27.584Z,221.37
2018-03-06T16:27:55.133Z,218.17
2018-03-06T16:30:22.657Z,218.33
2018-03-06T16:32:50.985Z,232.07
2018-03-06T16:35:18.503Z,232.00
2018-03-06T16:37:46.032Z,227.23
2018-03-06T16:40:13.576Z,244.73
2018-03-06T16:42:41.097Z,250.97
2018-03-06T16:45:09.405Z,236.43
2018-03-06T16:47:38.158Z,257.80
2018-03-06T16:50:05.720Z,248.83
2018-03-06T16:52:33.251Z,268.03
2018-03-06T16:55:00.832Z,267.40
2018-03-06T16:57:28.332Z,241.00
2018-03-06T16:59:55.929Z,271.57
2018-03-06T17:02:23.452Z,251.47
2018-03-06T17:04:51.046Z,280.67
2018-03-06T17:07:18.594Z,282.57
2018-03-06T17:09:46.881Z,281.60
2018-03-06T17:12:14.496Z,273.37
2018-03-06T17:14:42.792Z,273.27
2018-03-06T17:17:10.336Z,295.70
2018-03-06T17:19:38.688Z,290.15
2018-03-06T17:22:06.244Z,296.77
2018-03-06T17:24:33.770Z,290.70
2018-03-06T17:27:01.311Z,280.73
2018-03-06T17:29:28.864Z,305.00
2018-03-06T17:31:56.412Z,282.90
2018-03-06T17:34:23.944Z,284.87
2018-03-06T17:36:51.552Z,269.67
2018-03-06T17:39:19.072Z,284.63
2018-03-06T17:41:46.614Z,280.97
2018-03-06T17:44:14.156Z,251.80
2018-03-06T17:46:41.687Z,239.10
2018-03-06T17:49:09.236Z,255.27
2018-03-06T17:51:36.769Z,265.30
2018-03-06T17:54:04.470Z,247.97
2018-03-06T17:56:32.042Z,239.93
2018-03-06T17:58:59.612Z,245.57
2018-03-06T18:01:27.391Z,248.67
2018-03-06T18:03:54.981Z,236.80
2018-03-06T18:06:22.488Z,247.10
2018-03-06T18:08:50.713Z,229.77
2018-03-06T18:11:18.241Z,236.00
2018-03-06T18:13:45.780Z,259.12
2018-03-06T18:16:13.373Z,226.23
2018-03-06T18:18:41.092Z,237.33
2018-03-06T18:21:08.641Z,227.90
2018-03-06T18:23:36.184Z,242.17
2018-03-06T18:26:03.776Z,241.90
2018-03-06T18:28:31.472Z,236.83
2018-03-06T18:30:59.091Z,229.40
2018-03-06T18:33:27.376Z,219.70
2018-03-06T18:35:54.931Z,238.12
2018-03-06T18:38:22.468Z,239.63
2018-03-06T18:40:50.016Z,260.73
2018-03-06T18:43:17.537Z,238.40
2018-03-06T18:45:45.844Z,228.70
2018-03-06T18:48:13.417Z,251.27
2018-03-06T18:50:54.344Z,232.13
2018-03-06T18:53:21.869Z,238.23
2018-03-06T18:55:49.456Z,218.17
2018-03-06T18:58:16.977Z,227.97
2018-03-06T19:01:05.168Z,216.90
2018-03-06T19:03:44.765Z,238.80
2018-03-06T19:06:24.329Z,234.03
2018-03-06T19:08:51.893Z,220.65
2018-03-06T19:11:19.437Z,211.70
2018-03-06T19:13:46.998Z,220.77
2018-03-06T19:16:14.519Z,220.10
2018-03-06T19:18:42.070Z,217.20
2018-03-06T19:21:09.592Z,199.80
2018-03-06T19:23:37.132Z,214.85
2018-03-06T19:26:04.665Z,228.33
2018-03-06T19:28:32.309Z,219.63
2018-03-06T19:30:59.874Z,210.07
2018-03-06T19:33:27.451Z,216.35
2018-03-06T19:35:54.964Z,203.93
2018-03-06T19:38:22.893Z,235.65
2018-03-06T19:40:50.435Z,228.00
2018-03-06T19:43:17.989Z,229.83
2018-03-06T19:45:45.533Z,219.70
2018-03-06T19:48:13.102Z,208.27
2018-03-06T19:50:40.620Z,197.50
2018-03-06T19:53:08.162Z,188.63
2018-03-06T19:55:36.473Z,182.77
2018-03-06T19:58:04.095Z,192.73
2018-03-06T20:00:31.660Z,206.37
2018-03-06T20:02:59.192Z,190.13
2018-03-06T20:05:26.737Z,174.90
2018-03-06T20:07:54.260Z,178.23
2018-03-06T20:10:21.869Z,179.53
2018-03-06T20:12:49.400Z,186.70
2018-03-06T20:15:17.767Z,182.73
2018-03-06T20:17:45.300Z,180.60
2018-03-06T20:20:13.139Z,170.57
2018-03-06T20:22:40.988Z,156.33
2018-03-06T20:25:14.727Z,147.00
2018-03-06T20:27:43.583Z,161.45
2018-03-06T20:30:17.751Z,145.93
2018-03-06T20:32:51.048Z,152.57
2018-03-06T20:35:18.579Z,138.07
2018-03-06T20:37:46.117Z,156.27
2018-03-06T20:40:19.469Z,144.30
2018-03-06T20:42:46.997Z,139.68
2018-03-06T20:45:15.309Z,148.23
2018-03-06T20:47:43.852Z,139.35
2018-03-06T20:50:11.402Z,144.77
2018-03-06T20:52:44.780Z,137.17
2018-03-06T20:55:12.317Z,145.05
2018-03-06T20:57:39.846Z,139.27
2018-03-06T21:00:07.404Z,147.77
2018-03-06T21:02:34.962Z,134.37
2018-03-06T21:05:02.510Z,135.50
2018-03-06T21:07:30.052Z,144.47
2018-03-06T21:09:57.608Z,133.70
2018-03-06T21:12:25.138Z,124.10
2018-03-06T21:14:52.705Z,131.90
2018-03-06T21:17:20.391Z,132.00
2018-03-06T21:19:48.702Z,121.62
2018-03-06T21:22:16.224Z,132.00
2018-03-06T21:24:44.282Z,117.63
2018-03-06T21:27:11.818Z,138.43
2018-03-06T21:29:39.349Z,127.93
2018-03-06T21:32:07.043Z,125.53
2018-03-06T21:34:34.618Z,122.63
2018-03-06T21:37:02.929Z,109.47
2018-03-06T21:39:30.523Z,121.00
2018-03-06T21:41:58.069Z,115.13
2018-03-06T21:44:25.626Z,112.13
2018-03-06T21:46:53.954Z,112.23
2018-03-06T21:49:21.641Z,111.43
2018-03-06T21:51:49.991Z,109.47
2018-03-06T21:54:17.518Z,107.37
2018-03-06T21:56:47.027Z,108.05
2018-03-06T21:59:14.548Z,104.73
2018-03-06T22:01:42.093Z,102.90
2018-03-06T22:04:09.623Z,117.40
2018-03-06T22:06:37.173Z,121.17
2018-03-06T22:09:04.700Z,113.20
2018-03-06T22:11:32.235Z,111.80
2018-03-06T22:13:59.803Z,104.37
2018-03-06T22:16:27.465Z,103.97
2018-03-06T22:18:55.144Z,102.80
2018-03-06T22:21:23.432Z,109.53
2018-03-06T22:23:50.988Z,102.63
2018-03-06T22:26:18.518Z,110.10
2018-03-06T22:28:46.082Z,113.27
2018-03-06T22:31:13.611Z,98.37
2018-03-06T22:33:41.378Z,104.87
2018-03-06T22:36:08.905Z,106.77
2018-03-06T22:38:36.448Z,101.17
2018-03-06T22:41:03.981Z,111.25
2018-03-06T22:43:31.554Z,99.47
2018-03-06T22:45:59.123Z,105.07
2018-03-06T22:48:26.673Z,108.43
2018-03-06T22:50:55.001Z,101.60
2018-03-06T22:53:22.657Z,103.00
2018-03-06T22:55:50.188Z,104.15
2018-03-06T22:58:17.716Z,102.70
2018-03-06T23:00:46.184Z,100.12
2018-03-06T23:03:13.755Z,103.23
2018-03-06T23:05:41.337Z,101.80
2018-03-06T23:08:09.628Z,99.03
2018-03-06T23:10:37.180Z,102.57
2018-03-06T23:13:04.722Z,98.57
2018-03-06T23:15:32.278Z,99.47
2018-03-06T23:17:59.809Z,102.25
2018-03-06T23:20:27.418Z,101.17
2018-03-06T23:22:55.721Z,99.80
2018-03-06T23:25:23.274Z,110.93
2018-03-06T23:27:50.808Z,108.10
2018-03-06T23:30:18.373Z,99.80
2018-03-06T23:32:45.899Z,104.23
2018-03-06T23:35:13.424Z,112.18
2018-03-06T23:37:41.731Z,101.37
2018-03-06T23:40:09.277Z,104.27
2018-03-06T23:42:36.830Z,103.03
2018-03-06T23:45:04.369Z,97.07
2018-03-06T23:47:32.686Z,112.95
2018-03-06T23:50:00.265Z,104.30
2018-03-06T23:52:27.878Z,108.57
2018-03-06T23:54:56.209Z,109.40
2018-03-06T23:57:23.761Z,112.07
2018-03-06T23:59:51.335Z,100.27
